createdAt,value
2022-11-05T00:00:36.861Z,10.00
2022-11-05T00:03:22.921Z,6.87
2022-11-05T00:06:10.708Z,11.97
2022-11-05T00:08:56.182Z,8.30
2022-11-05T00:11:43.280Z,7.80
2022-11-05T00:14:28.800Z,8.13
2022-11-05T00:16:55.829Z,8.80
2022-11-05T00:19:22.791Z,7.93
2022-11-05T00:22:08.241Z,8.60
2022-11-05T00:24:53.699Z,9.00
2022-11-05T00:27:20.752Z,9.87
2022-11-05T00:29:47.760Z,9.97
2022-11-05T00:32:14.701Z,8.53
2022-11-05T00:34:41.651Z,8.87
2022-11-05T00:37:08.597Z,10.23
2022-11-05T00:39:35.569Z,7.00
2022-11-05T00:42:20.939Z,8.60
2022-11-05T00:45:03.080Z,9.00
2022-11-05T00:47:50.435Z,9.27
2022-11-05T00:50:18.485Z,7.10
2022-11-05T00:52:59.355Z,10.87
2022-11-05T00:55:42.260Z,8.37
2022-11-05T00:58:13.589Z,7.47
2022-11-05T01:00:45.558Z,8.17
2022-11-05T01:03:15.568Z,8.40
2022-11-05T01:05:51.081Z,11.20
2022-11-05T01:08:20.198Z,10.47
2022-11-05T01:10:53.519Z,11.27
2022-11-05T01:13:23.081Z,12.60
2022-11-05T01:15:53.571Z,9.33
2022-11-05T01:18:22.768Z,8.53
2022-11-05T01:20:50.324Z,8.63
2022-11-05T01:23:17.673Z,10.23
2022-11-05T01:25:44.810Z,11.37
2022-11-05T01:28:11.772Z,11.17
2022-11-05T01:30:39.184Z,9.80
2022-11-05T01:33:06.261Z,12.03
2022-11-05T01:35:33.300Z,8.30
2022-11-05T01:38:00.505Z,9.80
2022-11-05T01:40:27.681Z,11.63
2022-11-05T01:42:54.711Z,13.03
2022-11-05T01:45:25.582Z,9.60
2022-11-05T01:48:01.447Z,9.60
2022-11-05T01:50:34.347Z,12.87
2022-11-05T01:53:08.502Z,8.43
2022-11-05T01:55:41.717Z,8.53
2022-11-05T01:58:12.224Z,8.20
2022-11-05T02:00:42.101Z,7.73
2022-11-05T02:03:10.582Z,11.50
2022-11-05T02:05:40.263Z,9.30
2022-11-05T02:08:13.441Z,8.37
2022-11-05T02:10:42.984Z,8.60
2022-11-05T02:13:10.256Z,8.67
2022-11-05T02:16:14.563Z,8.07
2022-11-05T02:19:21.035Z,7.67
2022-11-05T02:22:06.456Z,9.30
2022-11-05T02:25:02.746Z,6.63
2022-11-05T02:27:35.976Z,9.37
2022-11-05T02:30:26.568Z,8.43
2022-11-05T02:33:19.125Z,9.87
2022-11-05T02:35:46.029Z,9.07
2022-11-05T02:38:33.182Z,6.43
2022-11-05T02:41:14.596Z,7.47
2022-11-05T02:43:44.701Z,6.83
2022-11-05T02:46:33.330Z,7.77
2022-11-05T02:49:18.095Z,6.57
2022-11-05T02:51:58.345Z,8.97
2022-11-05T02:54:54.106Z,12.10
2022-11-05T02:57:23.941Z,6.30
2022-11-05T03:00:01.837Z,7.00
2022-11-05T03:02:29.119Z,6.23
2022-11-05T03:04:56.281Z,6.53
2022-11-05T03:07:58.856Z,7.40
2022-11-05T03:10:58.033Z,8.50
2022-11-05T03:13:43.965Z,11.23
2022-11-05T03:16:20.452Z,6.93
2022-11-05T03:19:07.939Z,8.00
2022-11-05T03:21:55.206Z,7.17
2022-11-05T03:24:35.605Z,11.70
2022-11-05T03:27:15.486Z,7.23
2022-11-05T03:29:54.288Z,7.40
2022-11-05T03:32:22.931Z,7.17
2022-11-05T03:35:01.157Z,7.33
2022-11-05T03:37:37.666Z,6.97
2022-11-05T03:40:08.701Z,7.97
2022-11-05T03:42:38.305Z,7.77
2022-11-05T03:45:19.959Z,7.67
2022-11-05T03:47:50.522Z,6.57
2022-11-05T03:50:23.956Z,8.43
2022-11-05T03:53:02.134Z,8.47
2022-11-05T03:55:35.309Z,6.40
2022-11-05T03:58:04.301Z,8.37
2022-11-05T04:00:31.373Z,7.00
2022-11-05T04:02:58.531Z,5.27
2022-11-05T04:05:25.620Z,7.70
2022-11-05T04:08:14.337Z,6.70
2022-11-05T04:11:00.124Z,7.20
2022-11-05T04:13:27.980Z,6.03
2022-11-05T04:16:15.057Z,8.43
2022-11-05T04:18:42.945Z,6.60
2022-11-05T04:21:29.376Z,5.60
2022-11-05T04:24:08.758Z,8.30
2022-11-05T04:26:44.193Z,6.27
2022-11-05T04:29:30.071Z,6.10
2022-11-05T04:31:57.419Z,6.17
2022-11-05T04:34:24.689Z,7.80
2022-11-05T04:36:53.165Z,7.33
2022-11-05T04:39:21.437Z,4.50
2022-11-05T04:41:48.815Z,11.53
2022-11-05T04:44:16.720Z,5.57
2022-11-05T04:46:43.833Z,6.70
2022-11-05T04:49:10.888Z,5.47
2022-11-05T04:51:37.863Z,6.23
2022-11-05T04:54:04.915Z,5.60
2022-11-05T04:56:32.083Z,4.60
2022-11-05T04:58:59.054Z,4.80
2022-11-05T05:01:26.205Z,5.83
2022-11-05T05:03:54.711Z,5.60
2022-11-05T05:06:22.679Z,5.70
2022-11-05T05:08:51.519Z,5.73
2022-11-05T05:11:20.777Z,5.07
2022-11-05T05:13:48.742Z,4.30
2022-11-05T05:16:24.267Z,4.77
2022-11-05T05:18:52.494Z,5.27
2022-11-05T05:21:40.362Z,6.00
2022-11-05T05:24:18.791Z,4.10
2022-11-05T05:26:48.801Z,5.07
2022-11-05T05:29:16.848Z,5.13
2022-11-05T05:31:44.658Z,4.93
2022-11-05T05:34:13.520Z,5.53
2022-11-05T05:36:40.623Z,3.90
2022-11-05T05:39:08.371Z,4.87
2022-11-05T05:41:35.358Z,5.80
2022-11-05T05:44:04.223Z,4.53
2022-11-05T05:46:31.177Z,8.13
2022-11-05T05:48:58.217Z,4.33
2022-11-05T05:51:25.185Z,3.77
2022-11-05T05:53:54.742Z,3.90
2022-11-05T05:56:22.051Z,4.07
2022-11-05T05:58:49.078Z,5.37
2022-11-05T06:01:20.020Z,4.17
2022-11-05T06:03:48.551Z,4.47
2022-11-05T06:06:19.835Z,5.00
2022-11-05T06:08:47.649Z,4.47
2022-11-05T06:11:14.724Z,3.67
2022-11-05T06:13:41.798Z,3.83
2022-11-05T06:16:09.872Z,5.80
2022-11-05T06:18:37.179Z,4.40
2022-11-05T06:21:12.146Z,3.70
2022-11-05T06:23:40.747Z,3.80
2022-11-05T06:26:10.500Z,5.27
2022-11-05T06:28:37.591Z,3.77
2022-11-05T06:31:05.105Z,8.93
2022-11-05T06:33:32.278Z,5.07
2022-11-05T06:36:00.532Z,4.43
2022-11-05T06:38:29.338Z,7.53
2022-11-05T06:40:58.659Z,2.97
2022-11-05T06:43:26.522Z,3.33
2022-11-05T06:45:53.801Z,5.70
2022-11-05T06:48:20.805Z,2.73
2022-11-05T06:50:47.934Z,4.47
2022-11-05T06:53:14.995Z,3.20
2022-11-05T06:55:42.017Z,3.50
2022-11-05T06:58:09.015Z,3.13
2022-11-05T07:00:35.998Z,5.37
2022-11-05T07:03:07.885Z,6.50
2022-11-05T07:05:38.669Z,5.57
2022-11-05T07:08:06.487Z,3.90
2022-11-05T07:10:33.674Z,3.90
2022-11-05T07:13:06.642Z,3.70
2022-11-05T07:15:34.961Z,3.87
2022-11-05T07:18:02.502Z,2.40
2022-11-05T07:20:33.981Z,7.10
2022-11-05T07:23:11.517Z,3.20
2022-11-05T07:25:39.353Z,4.53
2022-11-05T07:28:08.483Z,4.03
2022-11-05T07:30:36.518Z,7.67
2022-11-05T07:33:03.908Z,4.30
2022-11-05T07:35:31.374Z,4.40
2022-11-05T07:37:58.670Z,3.63
2022-11-05T07:40:27.709Z,4.67
2022-11-05T07:43:00.717Z,2.87
2022-11-05T07:45:29.529Z,3.30
2022-11-05T07:48:03.483Z,3.43
2022-11-05T07:50:36.523Z,4.40
2022-11-05T07:53:21.434Z,3.40
2022-11-05T07:55:48.430Z,3.50
2022-11-05T07:58:15.373Z,3.10
2022-11-05T08:00:42.415Z,4.50
2022-11-05T08:03:18.522Z,5.77
2022-11-05T08:05:47.798Z,6.73
2022-11-05T08:08:18.107Z,4.97
2022-11-05T08:10:45.541Z,4.70
2022-11-05T08:13:13.607Z,3.63
2022-11-05T08:15:42.267Z,4.73
2022-11-05T08:18:15.621Z,3.97
2022-11-05T08:20:44.145Z,4.93
2022-11-05T08:23:11.901Z,5.17
2022-11-05T08:25:39.927Z,3.50
2022-11-05T08:28:10.760Z,4.07
2022-11-05T08:30:38.155Z,7.13
2022-11-05T08:33:11.702Z,5.07
2022-11-05T08:35:39.830Z,3.90
2022-11-05T08:38:09.021Z,3.80
2022-11-05T08:40:36.933Z,5.37
2022-11-05T08:43:06.870Z,6.57
2022-11-05T08:45:38.324Z,3.60
2022-11-05T08:48:15.949Z,4.57
2022-11-05T08:50:44.342Z,5.40
2022-11-05T08:53:12.371Z,5.20
2022-11-05T08:55:39.708Z,3.53
2022-11-05T08:58:12.509Z,7.13
2022-11-05T09:00:40.117Z,6.97
2022-11-05T09:03:09.014Z,5.33
2022-11-05T09:05:39.165Z,4.23
2022-11-05T09:08:07.927Z,4.17
2022-11-05T09:10:35.746Z,5.90
2022-11-05T09:13:03.027Z,3.90
2022-11-05T09:15:30.316Z,4.13
2022-11-05T09:17:57.760Z,4.93
2022-11-05T09:20:24.879Z,3.70
2022-11-05T09:22:51.878Z,3.50
2022-11-05T09:25:18.965Z,6.03
2022-11-05T09:27:45.969Z,4.77
2022-11-05T09:30:13.764Z,3.13
2022-11-05T09:32:40.941Z,5.50
2022-11-05T09:35:08.919Z,5.43
2022-11-05T09:37:38.891Z,8.43
2022-11-05T09:40:06.688Z,3.10
2022-11-05T09:42:41.320Z,3.57
2022-11-05T09:45:17.347Z,4.37
2022-11-05T09:47:58.292Z,3.73
2022-11-05T09:50:33.767Z,4.93
2022-11-05T09:53:01.941Z,4.03
2022-11-05T09:55:42.006Z,5.00
2022-11-05T09:58:36.168Z,3.17
2022-11-05T10:01:06.899Z,5.30
2022-11-05T10:03:38.163Z,5.40
2022-11-05T10:06:09.245Z,4.90
2022-11-05T10:08:43.368Z,6.17
2022-11-05T10:11:28.474Z,4.93
2022-11-05T10:14:07.744Z,5.33
2022-11-05T10:16:39.700Z,5.60
2022-11-05T10:19:14.708Z,4.73
2022-11-05T10:22:05.692Z,4.10
2022-11-05T10:24:30.212Z,4.47
2022-11-05T10:26:58.365Z,3.03
2022-11-05T10:29:29.672Z,6.63
2022-11-05T10:31:58.528Z,1.93
2022-11-05T10:34:38.181Z,3.43
2022-11-05T10:37:05.770Z,1.97
2022-11-05T10:39:34.042Z,1.97
2022-11-05T10:42:30.499Z,2.27
2022-11-05T10:45:16.098Z,3.17
2022-11-05T10:47:59.993Z,2.40
2022-11-05T10:50:29.759Z,4.30
2022-11-05T10:53:11.753Z,3.80
2022-11-05T10:55:43.925Z,3.90
2022-11-05T10:58:13.742Z,4.00
2022-11-05T11:00:40.945Z,6.13
2022-11-05T11:03:33.938Z,5.70
2022-11-05T11:06:11.853Z,2.83
2022-11-05T11:08:38.827Z,6.80
2022-11-05T11:11:10.611Z,5.23
2022-11-05T11:14:03.490Z,2.40
2022-11-05T11:16:41.801Z,2.33
2022-11-05T11:19:23.888Z,2.77
2022-11-05T11:22:05.843Z,2.87
2022-11-05T11:24:44.318Z,2.10
2022-11-05T11:27:25.983Z,2.20
2022-11-05T11:29:58.518Z,2.03
2022-11-05T11:32:34.160Z,2.90
2022-11-05T11:35:02.207Z,2.10
2022-11-05T11:37:33.199Z,2.37
2022-11-05T11:40:17.043Z,3.53
2022-11-05T11:42:54.851Z,3.60
2022-11-05T11:46:04.916Z,1.70
2022-11-05T11:48:36.254Z,2.50
2022-11-05T11:51:29.251Z,2.53
2022-11-05T11:53:59.342Z,2.27
2022-11-05T11:56:26.957Z,0.80
2022-11-05T11:58:56.410Z,1.40
2022-11-05T12:01:35.373Z,2.30
2022-11-05T12:04:24.004Z,1.30
2022-11-05T12:07:09.790Z,1.43
2022-11-05T12:10:11.586Z,1.30
2022-11-05T12:12:58.930Z,1.43
2022-11-05T12:15:32.260Z,2.90
2022-11-05T12:18:09.799Z,3.47
2022-11-05T12:20:39.509Z,1.50
2022-11-05T12:23:21.558Z,1.00
2022-11-05T12:25:57.475Z,1.63
2022-11-05T12:29:18.001Z,2.00
2022-11-05T12:32:35.012Z,1.90
2022-11-05T12:35:22.916Z,0.70
2022-11-05T12:38:17.970Z,1.67
2022-11-05T12:41:00.086Z,1.10
2022-11-05T12:43:48.999Z,2.50
2022-11-05T12:46:44.833Z,2.73
2022-11-05T12:49:23.703Z,1.20
2022-11-05T12:52:13.703Z,1.20
2022-11-05T12:54:59.687Z,0.80
2022-11-05T12:57:29.723Z,2.30
2022-11-05T13:00:23.263Z,0.63
2022-11-05T13:03:08.897Z,0.70
2022-11-05T13:06:10.094Z,0.70
2022-11-05T13:08:40.398Z,1.80
2022-11-05T13:11:21.636Z,1.93
2022-11-05T13:14:19.490Z,0.50
2022-11-05T13:17:13.640Z,0.87
2022-11-05T13:19:56.974Z,1.27
2022-11-05T13:22:43.051Z,2.43
2022-11-05T13:25:24.088Z,1.10
2022-11-05T13:27:56.695Z,2.23
2022-11-05T13:30:28.945Z,1.53
2022-11-05T13:33:03.093Z,0.67
2022-11-05T13:35:40.855Z,1.07
2022-11-05T13:38:39.002Z,1.17
2022-11-05T13:41:15.028Z,0.80
2022-11-05T13:44:13.625Z,6.20
2022-11-05T13:46:48.610Z,1.00
2022-11-05T13:49:46.474Z,0.77
2022-11-05T13:52:25.919Z,0.67
2022-11-05T13:55:34.324Z,1.17
2022-11-05T13:58:34.938Z,0.50
2022-11-05T14:01:28.704Z,0.90
2022-11-05T14:03:56.712Z,1.70
2022-11-05T14:06:35.523Z,1.43
2022-11-05T14:09:07.605Z,0.83
2022-11-05T14:11:41.623Z,2.37
2022-11-05T14:14:17.826Z,1.10
2022-11-05T14:17:14.358Z,1.30
2022-11-05T14:20:08.334Z,1.10
2022-11-05T14:22:41.033Z,1.20
2022-11-05T14:25:20.491Z,2.40
2022-11-05T14:27:51.058Z,1.70
2022-11-05T14:30:44.920Z,1.27
2022-11-05T14:33:17.208Z,2.20
2022-11-05T14:35:44.314Z,1.67
2022-11-05T14:38:23.993Z,2.20
2022-11-05T14:41:01.045Z,1.67
2022-11-05T14:43:32.186Z,1.77
2022-11-05T14:46:06.196Z,5.97
2022-11-05T14:48:41.175Z,2.27
2022-11-05T14:51:40.315Z,1.40
2022-11-05T14:54:14.811Z,2.77
2022-11-05T14:56:56.387Z,2.20
2022-11-05T14:59:31.428Z,2.37
2022-11-05T15:02:04.329Z,4.07
2022-11-05T15:04:36.185Z,3.37
2022-11-05T15:07:03.170Z,3.77
2022-11-05T15:09:36.673Z,4.03
2022-11-05T15:12:13.843Z,4.57
2022-11-05T15:14:51.180Z,5.47
2022-11-05T15:17:42.569Z,5.07
2022-11-05T15:20:24.111Z,4.67
2022-11-05T15:22:57.093Z,4.13
2022-11-05T15:25:29.586Z,5.27
2022-11-05T15:28:03.415Z,5.83
2022-11-05T15:30:30.553Z,7.13
2022-11-05T15:33:18.487Z,7.70
2022-11-05T15:35:45.463Z,8.83
2022-11-05T15:38:26.371Z,7.47
2022-11-05T15:41:02.280Z,5.43
2022-11-05T15:43:29.348Z,6.37
2022-11-05T15:46:04.418Z,4.40
2022-11-05T15:48:32.601Z,9.93
2022-11-05T15:51:00.065Z,6.63
2022-11-05T15:54:15.676Z,6.60
2022-11-05T15:56:40.209Z,4.37
2022-11-05T15:59:19.565Z,5.17
2022-11-05T16:01:53.289Z,3.90
2022-11-05T16:04:22.196Z,6.20
2022-11-05T16:06:53.910Z,3.80
2022-11-05T16:09:25.064Z,4.40
2022-11-05T16:12:18.271Z,5.07
2022-11-05T16:15:05.046Z,4.40
2022-11-05T16:17:46.511Z,5.23
2022-11-05T16:20:33.166Z,6.03
2022-11-05T16:23:03.619Z,6.37
2022-11-05T16:25:43.286Z,6.50
2022-11-05T16:28:21.365Z,7.80
2022-11-05T16:31:06.503Z,6.80
2022-11-05T16:33:46.380Z,6.30
2022-11-05T16:36:13.483Z,10.57
2022-11-05T16:38:40.527Z,9.30
2022-11-05T16:41:12.530Z,8.53
2022-11-05T16:43:39.595Z,8.43
2022-11-05T16:46:06.777Z,10.40
2022-11-05T16:48:33.773Z,6.37
2022-11-05T16:51:00.771Z,6.90
2022-11-05T16:53:27.748Z,6.97
2022-11-05T16:55:54.678Z,7.20
2022-11-05T16:58:26.709Z,6.60
2022-11-05T17:01:02.355Z,10.00
2022-11-05T17:03:29.657Z,8.13
2022-11-05T17:05:56.628Z,10.27
2022-11-05T17:08:23.810Z,9.73
2022-11-05T17:10:50.869Z,9.63
2022-11-05T17:13:19.558Z,11.23
2022-11-05T17:15:48.983Z,12.83
2022-11-05T17:18:18.957Z,10.20
2022-11-05T17:20:52.000Z,7.40
2022-11-05T17:23:21.557Z,9.00
2022-11-05T17:25:52.303Z,9.53
2022-11-05T17:28:20.088Z,8.43
2022-11-05T17:30:52.959Z,7.93
2022-11-05T17:33:22.872Z,6.87
2022-11-05T17:35:50.657Z,9.17
2022-11-05T17:38:18.090Z,6.17
2022-11-05T17:40:45.192Z,8.87
2022-11-05T17:43:12.347Z,4.90
2022-11-05T17:45:45.283Z,6.03
2022-11-05T17:48:12.620Z,6.00
2022-11-05T17:50:41.570Z,7.43
2022-11-05T17:53:08.860Z,6.23
2022-11-05T17:55:36.550Z,7.43
2022-11-05T17:58:03.609Z,7.03
2022-11-05T18:00:31.120Z,8.13
2022-11-05T18:02:58.134Z,7.93
2022-11-05T18:05:27.576Z,8.20
2022-11-05T18:07:55.603Z,7.13
2022-11-05T18:10:23.638Z,7.93
2022-11-05T18:12:50.648Z,7.63
2022-11-05T18:15:18.050Z,5.63
2022-11-05T18:17:46.334Z,5.97
2022-11-05T18:20:19.422Z,5.97
2022-11-05T18:22:49.186Z,6.33
2022-11-05T18:25:16.565Z,6.67
2022-11-05T18:27:43.596Z,9.03
2022-11-05T18:30:11.391Z,8.93
2022-11-05T18:32:39.225Z,6.80
2022-11-05T18:35:06.407Z,9.03
2022-11-05T18:37:33.385Z,8.17
2022-11-05T18:40:00.330Z,8.43
2022-11-05T18:42:27.430Z,10.70
2022-11-05T18:44:54.563Z,11.60
2022-11-05T18:47:21.555Z,13.73
2022-11-05T18:49:48.521Z,20.30
2022-11-05T18:52:15.550Z,11.47
2022-11-05T18:54:42.750Z,7.50
2022-11-05T18:57:09.711Z,10.93
2022-11-05T18:59:39.129Z,9.43
2022-11-05T19:02:08.312Z,8.43
2022-11-05T19:04:36.831Z,9.33
2022-11-05T19:07:05.388Z,8.77
2022-11-05T19:09:36.870Z,8.50
2022-11-05T19:12:04.943Z,7.83
2022-11-05T19:14:32.369Z,9.40
2022-11-05T19:17:00.270Z,11.17
2022-11-05T19:19:27.716Z,8.70
2022-11-05T19:21:55.111Z,12.60
2022-11-05T19:24:22.145Z,12.70
2022-11-05T19:26:49.186Z,10.57
2022-11-05T19:29:16.384Z,10.03
2022-11-05T19:31:43.576Z,9.93
2022-11-05T19:34:10.510Z,9.00
2022-11-05T19:36:37.496Z,11.23
2022-11-05T19:39:08.934Z,14.17
2022-11-05T19:41:35.905Z,9.77
2022-11-05T19:44:03.179Z,10.50
2022-11-05T19:46:31.482Z,12.53
2022-11-05T19:49:00.496Z,15.40
2022-11-05T19:51:29.852Z,14.60
2022-11-05T19:53:59.922Z,18.00
2022-11-05T19:56:32.503Z,19.40
2022-11-05T19:59:00.062Z,23.70
2022-11-05T20:01:28.887Z,25.23
2022-11-05T20:03:57.936Z,17.77
2022-11-05T20:06:28.784Z,21.87
2022-11-05T20:09:21.097Z,18.50
2022-11-05T20:11:48.824Z,20.40
2022-11-05T20:14:15.868Z,22.07
2022-11-05T20:16:43.043Z,16.97
2022-11-05T20:19:13.325Z,17.00
2022-11-05T20:21:40.777Z,17.93
2022-11-05T20:24:08.853Z,15.30
2022-11-05T20:26:35.872Z,15.70
2022-11-05T20:29:03.394Z,17.00
2022-11-05T20:31:31.111Z,21.90
2022-11-05T20:33:58.256Z,22.07
2022-11-05T20:36:25.955Z,15.33
2022-11-05T20:38:56.563Z,18.20
2022-11-05T20:41:24.536Z,14.60
2022-11-05T20:43:52.021Z,23.67
2022-11-05T20:46:21.493Z,17.73
2022-11-05T20:48:48.686Z,18.33
2022-11-05T20:51:18.650Z,15.53
2022-11-05T20:53:48.995Z,20.40
2022-11-05T20:56:19.022Z,15.77
2022-11-05T20:58:47.293Z,15.83
2022-11-05T21:01:16.753Z,16.67
2022-11-05T21:03:45.182Z,14.13
2022-11-05T21:06:13.496Z,16.83
2022-11-05T21:08:40.944Z,14.57
2022-11-05T21:11:09.237Z,14.70
2022-11-05T21:13:36.486Z,12.93
2022-11-05T21:16:06.427Z,13.13
2022-11-05T21:18:35.019Z,12.40
2022-11-05T21:21:07.063Z,14.00
2022-11-05T21:23:34.063Z,18.83
2022-11-05T21:26:08.598Z,13.73
2022-11-05T21:28:38.857Z,13.63
2022-11-05T21:31:07.321Z,12.33
2022-11-05T21:33:34.528Z,12.53
2022-11-05T21:36:11.487Z,14.80
2022-11-05T21:38:39.276Z,13.03
2022-11-05T21:41:07.698Z,11.77
2022-11-05T21:43:34.842Z,11.00
2022-11-05T21:46:03.537Z,11.60
2022-11-05T21:48:31.323Z,11.33
2022-11-05T21:51:16.735Z,12.60
2022-11-05T21:54:02.190Z,14.63
2022-11-05T21:56:48.062Z,10.97
2022-11-05T21:59:36.570Z,12.53
2022-11-05T22:02:04.436Z,10.07
2022-11-05T22:04:36.630Z,13.17
2022-11-05T22:07:04.824Z,10.57
2022-11-05T22:09:32.235Z,17.67
2022-11-05T22:12:00.298Z,11.57
2022-11-05T22:14:28.428Z,11.23
2022-11-05T22:16:56.289Z,13.37
2022-11-05T22:19:24.300Z,13.87
2022-11-05T22:21:51.410Z,11.57
2022-11-05T22:24:19.247Z,9.20
2022-11-05T22:26:46.988Z,11.23
2022-11-05T22:29:14.215Z,12.57
2022-11-05T22:31:41.492Z,10.77
2022-11-05T22:34:09.765Z,10.93
2022-11-05T22:36:36.934Z,10.30
2022-11-05T22:39:05.291Z,12.03
2022-11-05T22:41:32.535Z,9.17
2022-11-05T22:43:59.553Z,15.23
2022-11-05T22:46:27.386Z,11.20
2022-11-05T22:48:56.028Z,8.20
2022-11-05T22:51:29.610Z,9.93
2022-11-05T22:53:57.474Z,11.40
2022-11-05T22:56:26.447Z,11.63
2022-11-05T22:58:54.171Z,12.13
2022-11-05T23:01:22.620Z,11.70
2022-11-05T23:03:51.733Z,13.63
2022-11-05T23:06:38.898Z,9.10
2022-11-05T23:09:31.407Z,12.13
2022-11-05T23:11:58.958Z,10.73
2022-11-05T23:14:26.330Z,11.43
2022-11-05T23:17:11.933Z,13.67
2022-11-05T23:19:57.215Z,14.10
2022-11-05T23:22:46.511Z,11.50
2022-11-05T23:25:17.250Z,11.13
2022-11-05T23:27:45.984Z,14.23
2022-11-05T23:30:21.985Z,15.17
2022-11-05T23:32:50.296Z,12.30
2022-11-05T23:35:38.584Z,10.47
2022-11-05T23:38:23.975Z,14.10
2022-11-05T23:41:09.365Z,13.07
2022-11-05T23:43:54.736Z,15.67
2022-11-05T23:46:40.124Z,11.27
2022-11-05T23:49:07.276Z,23.53
2022-11-05T23:51:34.302Z,8.53
2022-11-05T23:54:01.228Z,10.07
2022-11-05T23:56:28.232Z,10.33
2022-11-05T23:58:55.277Z,13.20
